Accueil
METAR-TAF:

METAR-TAF

Aéroports :

Pirassununga, São Paulo, Brésil

latitude: 21-59S, longitude: 047-20W, altitude: 597 m

Observation

Le bulletin a été fait il y a 1 heure et 25 minutes, à 23:00 UTC
Vent 1 kt de nord-ouest
Température 22°C
Humidité 60%
Pression 1012 hPa
Visibilité 10 km ou plus
pas de nuages en-dessous de 1500 mètres et pas de cumulonimbus.

METAR: SBYS 262300Z 32001KT CAVOK 22/14 Q1012

Heure: 21:25 (00:25 UTC)

Prévision

Le bulletin a été fait il y a 8 heures et 25 minutes, à 16:00 UTC
Prévision valable du 26 à 18 UTC au 27 à 06 UTC
Vent 5 kt de sud/sud-est
Visibilité 10 km ou plus
Nuages épars à une hauteur de 4500 ft
Evoluant progressivement
du 26 à 22 UTC au 26 à 24 UTC
Vent 8 kt de sud/sud-ouest
Visibilité 10 km ou plus
pas de nuages en-dessous de 1500 mètres et pas de cumulonimbus.

TAF: SBYS 261600Z 2618/2706 15005KT 9999 SCT045 TX29/2618Z TN18/2706Z BECMG 2622/2624 20008KT CAVOK RMK PFM

Observations et prévisions météorologiques de plus de 4000 aéroports (messages METAR et TAF).

Les stations disponibles sont représentées par des disques jaunes et rouges sur la carte.

Passer la souris dessus pour voir le nom de la station.

Cliquer dessus pour voir les observations et prévisions météorologiques.

Pour changer de carte: cliquez sur les boutons verts avec une croix noire pour zoomer, sur le bouton vert avec un tiret pour effectuer un zoom arrière, ou sur les flèches vertes pour les cartes adjacentes.


METAR-TAF: